sensor_id;sensor_type;location;lat;lon;timestamp;pressure;altitude;pressure_sealevel;temperature;humidity
34696;BME280;20918;51.138;17.370;2023-02-28T00:02:47;101593.39;;;-0.91;75.42
34696;BME280;20918;51.138;17.370;2023-02-28T00:05:48;101588.48;;;-0.89;75.11
34696;BME280;20918;51.138;17.370;2023-02-28T00:08:48;101590.02;;;-0.94;75.20
34696;BME280;20918;51.138;17.370;2023-02-28T00:11:49;101589.70;;;-0.95;75.23
34696;BME280;20918;51.138;17.370;2023-02-28T00:14:49;101589.48;;;-0.93;75.66
34696;BME280;20918;51.138;17.370;2023-02-28T00:17:50;101590.55;;;-0.89;75.58
34696;BME280;20918;51.138;17.370;2023-02-28T00:20:50;101591.11;;;-0.85;75.55
34696;BME280;20918;51.138;17.370;2023-02-28T00:23:51;101587.92;;;-0.84;75.30
34696;BME280;20918;51.138;17.370;2023-02-28T00:26:51;101586.96;;;-0.81;75.41
34696;BME280;20918;51.138;17.370;2023-02-28T00:29:52;101589.56;;;-0.81;75.16
34696;BME280;20918;51.138;17.370;2023-02-28T00:32:54;101593.36;;;-0.80;75.09
34696;BME280;20918;51.138;17.370;2023-02-28T00:36:04;101589.45;;;-0.82;74.96
34696;BME280;20918;51.138;17.370;2023-02-28T00:39:05;101584.56;;;-0.82;74.95
34696;BME280;20918;51.138;17.370;2023-02-28T00:42:06;101581.84;;;-0.79;75.09
34696;BME280;20918;51.138;17.370;2023-02-28T00:45:07;101579.62;;;-0.76;75.41
34696;BME280;20918;51.138;17.370;2023-02-28T00:48:08;101580.20;;;-0.73;75.11
34696;BME280;20918;51.138;17.370;2023-02-28T00:51:08;101579.67;;;-0.73;75.04
34696;BME280;20918;51.138;17.370;2023-02-28T00:54:11;101575.66;;;-0.72;75.09
34696;BME280;20918;51.138;17.370;2023-02-28T00:57:12;101579.69;;;-0.73;75.24
34696;BME280;20918;51.138;17.370;2023-02-28T01:00:13;101580.42;;;-0.83;74.96
34696;BME280;20918;51.138;17.370;2023-02-28T01:03:18;101577.05;;;-0.90;75.31
34696;BME280;20918;51.138;17.370;2023-02-28T01:06:19;101577.56;;;-0.91;75.51
34696;BME280;20918;51.138;17.370;2023-02-28T01:09:19;101577.83;;;-0.88;75.55
34696;BME280;20918;51.138;17.370;2023-02-28T01:12:22;101575.88;;;-0.86;75.45
34696;BME280;20918;51.138;17.370;2023-02-28T01:15:23;101576.31;;;-0.84;75.36
34696;BME280;20918;51.138;17.370;2023-02-28T01:18:23;101573.42;;;-0.86;75.39
34696;BME280;20918;51.138;17.370;2023-02-28T01:21:25;101577.07;;;-0.91;75.48
34696;BME280;20918;51.138;17.370;2023-02-28T01:24:25;101579.11;;;-0.95;75.29
34696;BME280;20918;51.138;17.370;2023-02-28T01:27:26;101577.43;;;-1.01;75.30
34696;BME280;20918;51.138;17.370;2023-02-28T01:30:27;101576.34;;;-1.04;75.65
34696;BME280;20918;51.138;17.370;2023-02-28T01:33:27;101573.96;;;-1.05;75.70
34696;BME280;20918;51.138;17.370;2023-02-28T01:36:28;101578.91;;;-1.03;75.77
34696;BME280;20918;51.138;17.370;2023-02-28T01:39:29;101575.77;;;-1.03;75.90
34696;BME280;20918;51.138;17.370;2023-02-28T01:42:30;101570.52;;;-1.02;75.98
34696;BME280;20918;51.138;17.370;2023-02-28T01:45:31;101569.14;;;-1.01;75.87
34696;BME280;20918;51.138;17.370;2023-02-28T01:48:35;101568.25;;;-1.01;75.92
34696;BME280;20918;51.138;17.370;2023-02-28T01:54:46;101572.42;;;-1.01;75.73
34696;BME280;20918;51.138;17.370;2023-02-28T01:57:52;101570.02;;;-1.02;75.83
34696;BME280;20918;51.138;17.370;2023-02-28T02:00:55;101572.27;;;-1.02;75.83
34696;BME280;20918;51.138;17.370;2023-02-28T02:03:57;101571.92;;;-1.02;75.78
34696;BME280;20918;51.138;17.370;2023-02-28T02:06:59;101567.61;;;-1.03;75.99
34696;BME280;20918;51.138;17.370;2023-02-28T02:10:01;101572.17;;;-1.00;76.24
34696;BME280;20918;51.138;17.370;2023-02-28T02:39:02;101566.29;;;-1.00;76.35
34696;BME280;20918;51.138;17.370;2023-02-28T02:42:08;101567.97;;;-0.98;75.99
34696;BME280;20918;51.138;17.370;2023-02-28T02:45:22;101565.81;;;-1.01;75.81
34696;BME280;20918;51.138;17.370;2023-02-28T02:48:25;101565.98;;;-1.06;75.95
34696;BME280;20918;51.138;17.370;2023-02-28T02:51:27;101562.39;;;-1.07;75.96
34696;BME280;20918;51.138;17.370;2023-02-28T02:54:28;101560.67;;;-1.08;75.84
34696;BME280;20918;51.138;17.370;2023-02-28T02:57:36;101559.84;;;-1.08;75.81
34696;BME280;20918;51.138;17.370;2023-02-28T03:00:41;101561.89;;;-1.08;75.92
34696;BME280;20918;51.138;17.370;2023-02-28T03:03:43;101562.56;;;-1.07;75.49
34696;BME280;20918;51.138;17.370;2023-02-28T03:06:44;101559.40;;;-1.11;75.17
34696;BME280;20918;51.138;17.370;2023-02-28T03:09:52;101560.17;;;-1.13;75.32
34696;BME280;20918;51.138;17.370;2023-02-28T03:12:55;101566.20;;;-1.16;75.61
34696;BME280;20918;51.138;17.370;2023-02-28T03:19:31;101568.23;;;-1.20;75.80
34696;BME280;20918;51.138;17.370;2023-02-28T03:29:20;101577.89;;;-1.27;76.22
34696;BME280;20918;51.138;17.370;2023-02-28T03:35:51;101580.69;;;-1.33;75.97
34696;BME280;20918;51.138;17.370;2023-02-28T03:42:03;101587.56;;;-1.51;76.16
34696;BME280;20918;51.138;17.370;2023-02-28T03:45:12;101585.20;;;-1.53;76.41
34696;BME280;20918;51.138;17.370;2023-02-28T03:51:18;101586.53;;;-1.51;76.34
34696;BME280;20918;51.138;17.370;2023-02-28T03:54:21;101588.02;;;-1.49;76.46
34696;BME280;20918;51.138;17.370;2023-02-28T03:57:37;101585.55;;;-1.48;76.57
34696;BME280;20918;51.138;17.370;2023-02-28T04:00:40;101586.98;;;-1.49;76.66
34696;BME280;20918;51.138;17.370;2023-02-28T04:03:41;101589.95;;;-1.50;76.52
34696;BME280;20918;51.138;17.370;2023-02-28T04:06:44;101590.33;;;-1.50;76.68
34696;BME280;20918;51.138;17.370;2023-02-28T04:09:45;101589.59;;;-1.54;76.52
34696;BME280;20918;51.138;17.370;2023-02-28T04:12:45;101586.59;;;-1.52;76.81
34696;BME280;20918;51.138;17.370;2023-02-28T04:15:46;101593.83;;;-1.56;76.57
34696;BME280;20918;51.138;17.370;2023-02-28T04:18:46;101599.28;;;-1.63;76.79
34696;BME280;20918;51.138;17.370;2023-02-28T04:21:48;101597.02;;;-1.63;76.86
34696;BME280;20918;51.138;17.370;2023-02-28T04:24:49;101602.68;;;-1.61;76.96
34696;BME280;20918;51.138;17.370;2023-02-28T04:27:52;101599.11;;;-1.58;77.03
34696;BME280;20918;51.138;17.370;2023-02-28T04:30:59;101600.42;;;-1.56;77.26
34696;BME280;20918;51.138;17.370;2023-02-28T04:34:00;101601.87;;;-1.53;77.18
34696;BME280;20918;51.138;17.370;2023-02-28T04:37:01;101604.20;;;-1.50;76.85
34696;BME280;20918;51.138;17.370;2023-02-28T04:40:03;101606.42;;;-1.49;77.12
34696;BME280;20918;51.138;17.370;2023-02-28T04:43:06;101610.96;;;-1.50;77.20
34696;BME280;20918;51.138;17.370;2023-02-28T04:46:09;101608.30;;;-1.48;77.18
34696;BME280;20918;51.138;17.370;2023-02-28T04:49:10;101609.79;;;-1.46;77.00
34696;BME280;20918;51.138;17.370;2023-02-28T04:52:11;101614.30;;;-1.46;77.33
34696;BME280;20918;51.138;17.370;2023-02-28T04:55:13;101616.75;;;-1.46;77.36
34696;BME280;20918;51.138;17.370;2023-02-28T04:58:13;101615.40;;;-1.47;77.60
34696;BME280;20918;51.138;17.370;2023-02-28T05:01:18;101617.70;;;-1.49;77.27
34696;BME280;20918;51.138;17.370;2023-02-28T05:04:19;101613.70;;;-1.48;77.47
34696;BME280;20918;51.138;17.370;2023-02-28T05:07:20;101610.86;;;-1.47;77.60
34696;BME280;20918;51.138;17.370;2023-02-28T05:10:23;101608.08;;;-1.46;77.29
34696;BME280;20918;51.138;17.370;2023-02-28T05:13:23;101611.48;;;-1.45;77.45
34696;BME280;20918;51.138;17.370;2023-02-28T05:16:24;101613.52;;;-1.43;77.65
34696;BME280;20918;51.138;17.370;2023-02-28T05:19:24;101616.13;;;-1.43;77.82
34696;BME280;20918;51.138;17.370;2023-02-28T05:22:25;101615.23;;;-1.48;77.76
34696;BME280;20918;51.138;17.370;2023-02-28T05:25:25;101617.02;;;-1.50;77.99
34696;BME280;20918;51.138;17.370;2023-02-28T05:28:28;101617.64;;;-1.47;77.85
34696;BME280;20918;51.138;17.370;2023-02-28T05:31:28;101620.88;;;-1.45;77.93
34696;BME280;20918;51.138;17.370;2023-02-28T05:34:29;101623.84;;;-1.46;78.25
34696;BME280;20918;51.138;17.370;2023-02-28T05:37:29;101632.25;;;-1.48;78.42
34696;BME280;20918;51.138;17.370;2023-02-28T05:40:30;101633.79;;;-1.52;78.45
34696;BME280;20918;51.138;17.370;2023-02-28T05:43:30;101633.96;;;-1.52;78.52
34696;BME280;20918;51.138;17.370;2023-02-28T05:46:30;101641.20;;;-1.56;78.28
34696;BME280;20918;51.138;17.370;2023-02-28T05:49:33;101649.38;;;-1.62;78.16
34696;BME280;20918;51.138;17.370;2023-02-28T05:52:34;101651.11;;;-1.62;78.41
34696;BME280;20918;51.138;17.370;2023-02-28T05:55:35;101645.86;;;-1.55;78.54
34696;BME280;20918;51.138;17.370;2023-02-28T05:58:36;101647.45;;;-1.46;78.79
34696;BME280;20918;51.138;17.370;2023-02-28T06:01:38;101650.27;;;-1.32;78.51
34696;BME280;20918;51.138;17.370;2023-02-28T06:04:38;101655.16;;;-1.23;78.40
34696;BME280;20918;51.138;17.370;2023-02-28T06:07:41;101661.48;;;-1.05;78.46
34696;BME280;20918;51.138;17.370;2023-02-28T06:10:43;101665.46;;;-0.81;78.62
34696;BME280;20918;51.138;17.370;2023-02-28T06:13:45;101665.55;;;-0.50;78.54
34696;BME280;20918;51.138;17.370;2023-02-28T06:16:45;101667.52;;;-0.29;78.06
34696;BME280;20918;51.138;17.370;2023-02-28T06:19:46;101668.97;;;-0.08;78.00
34696;BME280;20918;51.138;17.370;2023-02-28T06:22:48;101666.57;;;0.17;78.06
34696;BME280;20918;51.138;17.370;2023-02-28T06:25:50;101666.60;;;0.55;78.19
34696;BME280;20918;51.138;17.370;2023-02-28T06:28:51;101667.95;;;0.92;77.85
34696;BME280;20918;51.138;17.370;2023-02-28T06:31:51;101668.98;;;1.24;77.37
34696;BME280;20918;51.138;17.370;2023-02-28T06:34:52;101674.54;;;1.59;77.33
34696;BME280;20918;51.138;17.370;2023-02-28T06:37:55;101674.48;;;2.01;77.07
34696;BME280;20918;51.138;17.370;2023-02-28T06:40:56;101670.77;;;2.13;75.75
34696;BME280;20918;51.138;17.370;2023-02-28T06:43:57;101675.92;;;2.07;75.37
34696;BME280;20918;51.138;17.370;2023-02-28T06:46:57;101677.84;;;1.93;74.94
34696;BME280;20918;51.138;17.370;2023-02-28T06:49:58;101678.91;;;1.89;74.76
34696;BME280;20918;51.138;17.370;2023-02-28T06:52:58;101681.92;;;1.91;74.87
34696;BME280;20918;51.138;17.370;2023-02-28T06:55:59;101677.92;;;2.02;74.88
34696;BME280;20918;51.138;17.370;2023-02-28T06:58:59;101677.02;;;2.13;74.45
34696;BME280;20918;51.138;17.370;2023-02-28T07:02:00;101676.98;;;2.14;74.18
34696;BME280;20918;51.138;17.370;2023-02-28T07:05:04;101680.04;;;2.23;74.03
34696;BME280;20918;51.138;17.370;2023-02-28T07:08:05;101682.52;;;2.47;74.32
34696;BME280;20918;51.138;17.370;2023-02-28T07:11:06;101685.56;;;2.94;74.54
34696;BME280;20918;51.138;17.370;2023-02-28T07:14:06;101682.07;;;3.34;74.21
34696;BME280;20918;51.138;17.370;2023-02-28T07:17:10;101681.17;;;3.86;74.53
34696;BME280;20918;51.138;17.370;2023-02-28T07:20:12;101683.98;;;4.41;73.62
34696;BME280;20918;51.138;17.370;2023-02-28T07:23:13;101681.55;;;4.71;72.56
34696;BME280;20918;51.138;17.370;2023-02-28T07:26:14;101682.21;;;5.12;71.85
34696;BME280;20918;51.138;17.370;2023-02-28T07:29:15;101681.46;;;5.36;70.12
34696;BME280;20918;51.138;17.370;2023-02-28T07:32:20;101684.33;;;5.61;69.35
34696;BME280;20918;51.138;17.370;2023-02-28T07:35:21;101683.80;;;5.82;68.11
34696;BME280;20918;51.138;17.370;2023-02-28T07:38:22;101689.71;;;6.06;67.39
34696;BME280;20918;51.138;17.370;2023-02-28T07:41:22;101692.21;;;6.27;66.59
34696;BME280;20918;51.138;17.370;2023-02-28T07:44:25;101694.02;;;6.61;66.21
34696;BME280;20918;51.138;17.370;2023-02-28T07:47:25;101697.64;;;6.86;65.48
34696;BME280;20918;51.138;17.370;2023-02-28T07:50:30;101693.49;;;6.98;64.45
34696;BME280;20918;51.138;17.370;2023-02-28T07:53:31;101695.59;;;6.87;63.69
34696;BME280;20918;51.138;17.370;2023-02-28T07:56:31;101691.11;;;7.01;63.39
34696;BME280;20918;51.138;17.370;2023-02-28T07:59:32;101688.77;;;7.05;62.89
34696;BME280;20918;51.138;17.370;2023-02-28T08:02:35;101689.22;;;7.24;62.59
34696;BME280;20918;51.138;17.370;2023-02-28T08:05:38;101692.30;;;7.45;62.15
34696;BME280;20918;51.138;17.370;2023-02-28T08:08:39;101685.89;;;7.71;61.39
34696;BME280;20918;51.138;17.370;2023-02-28T08:11:39;101686.70;;;7.74;60.71
34696;BME280;20918;51.138;17.370;2023-02-28T08:14:44;101688.60;;;7.97;60.47
34696;BME280;20918;51.138;17.370;2023-02-28T08:17:52;101686.67;;;8.06;59.53
34696;BME280;20918;51.138;17.370;2023-02-28T08:21:09;101686.31;;;8.06;58.84
34696;BME280;20918;51.138;17.370;2023-02-28T08:24:22;101683.40;;;8.13;58.66
34696;BME280;20918;51.138;17.370;2023-02-28T08:27:33;101680.70;;;8.35;57.96
34696;BME280;20918;51.138;17.370;2023-02-28T08:30:37;101681.22;;;8.52;58.16
34696;BME280;20918;51.138;17.370;2023-02-28T08:33:37;101674.55;;;8.98;57.66
34696;BME280;20918;51.138;17.370;2023-02-28T08:36:39;101680.36;;;9.20;56.71
34696;BME280;20918;51.138;17.370;2023-02-28T08:39:39;101679.58;;;9.26;55.55
34696;BME280;20918;51.138;17.370;2023-02-28T08:42:40;101681.41;;;9.39;55.57
34696;BME280;20918;51.138;17.370;2023-02-28T08:45:40;101679.61;;;9.41;54.79
34696;BME280;20918;51.138;17.370;2023-02-28T08:48:43;101676.52;;;9.43;54.66
34696;BME280;20918;51.138;17.370;2023-02-28T08:51:44;101677.55;;;9.50;54.03
34696;BME280;20918;51.138;17.370;2023-02-28T08:54:45;101680.98;;;9.57;53.73
34696;BME280;20918;51.138;17.370;2023-02-28T08:57:45;101676.57;;;9.66;53.42
34696;BME280;20918;51.138;17.370;2023-02-28T09:00:46;101677.88;;;9.50;53.04
34696;BME280;20918;51.138;17.370;2023-02-28T09:03:47;101680.01;;;9.41;52.75
34696;BME280;20918;51.138;17.370;2023-02-28T09:06:47;101677.77;;;9.63;52.54
34696;BME280;20918;51.138;17.370;2023-02-28T09:09:48;101677.27;;;9.75;52.27
34696;BME280;20918;51.138;17.370;2023-02-28T09:12:57;101673.95;;;9.90;52.01
34696;BME280;20918;51.138;17.370;2023-02-28T09:16:00;101673.08;;;9.77;51.71
34696;BME280;20918;51.138;17.370;2023-02-28T09:19:01;101668.31;;;9.59;51.05
34696;BME280;20918;51.138;17.370;2023-02-28T09:22:01;101672.66;;;9.47;50.80
34696;BME280;20918;51.138;17.370;2023-02-28T09:25:02;101667.46;;;9.32;49.42
34696;BME280;20918;51.138;17.370;2023-02-28T09:28:03;101666.27;;;9.07;48.73
34696;BME280;20918;51.138;17.370;2023-02-28T09:31:03;101670.92;;;8.99;49.33
34696;BME280;20918;51.138;17.370;2023-02-28T09:34:04;101663.15;;;8.85;49.20
34696;BME280;20918;51.138;17.370;2023-02-28T09:37:05;101657.86;;;8.85;49.04
34696;BME280;20918;51.138;17.370;2023-02-28T09:40:05;101660.20;;;8.92;49.52
34696;BME280;20918;51.138;17.370;2023-02-28T09:43:09;101659.63;;;9.08;49.39
34696;BME280;20918;51.138;17.370;2023-02-28T09:49:19;101654.85;;;9.26;48.76
34696;BME280;20918;51.138;17.370;2023-02-28T09:52:24;101656.08;;;9.20;49.03
34696;BME280;20918;51.138;17.370;2023-02-28T09:55:38;101657.62;;;9.20;47.97
34696;BME280;20918;51.138;17.370;2023-02-28T10:01:48;101666.35;;;8.66;47.80
34696;BME280;20918;51.138;17.370;2023-02-28T10:07:57;101670.48;;;8.96;48.84
34696;BME280;20918;51.138;17.370;2023-02-28T10:11:02;101669.66;;;9.06;47.74
34696;BME280;20918;51.138;17.370;2023-02-28T10:14:15;101669.60;;;8.86;47.64
34696;BME280;20918;51.138;17.370;2023-02-28T10:17:18;101666.35;;;8.76;47.64
34696;BME280;20918;51.138;17.370;2023-02-28T10:20:21;101664.77;;;8.78;47.61
34696;BME280;20918;51.138;17.370;2023-02-28T10:23:25;101665.02;;;8.86;47.66
34696;BME280;20918;51.138;17.370;2023-02-28T10:26:27;101666.17;;;8.85;47.30
34696;BME280;20918;51.138;17.370;2023-02-28T10:29:31;101661.63;;;8.84;47.49
34696;BME280;20918;51.138;17.370;2023-02-28T10:32:33;101662.45;;;8.87;46.54
34696;BME280;20918;51.138;17.370;2023-02-28T10:35:34;101666.06;;;8.30;45.69
34696;BME280;20918;51.138;17.370;2023-02-28T10:38:36;101671.40;;;8.05;45.93
34696;BME280;20918;51.138;17.370;2023-02-28T10:41:37;101669.92;;;7.35;45.14
34696;BME280;20918;51.138;17.370;2023-02-28T10:44:47;101668.02;;;6.79;46.66
34696;BME280;20918;51.138;17.370;2023-02-28T10:47:50;101668.66;;;6.59;46.04
34696;BME280;20918;51.138;17.370;2023-02-28T10:50:51;101662.25;;;6.04;46.77
34696;BME280;20918;51.138;17.370;2023-02-28T10:53:55;101666.34;;;5.81;47.27
34696;BME280;20918;51.138;17.370;2023-02-28T10:57:06;101664.19;;;5.43;46.73
34696;BME280;20918;51.138;17.370;2023-02-28T11:00:23;101662.13;;;4.88;46.98
34696;BME280;20918;51.138;17.370;2023-02-28T11:03:29;101666.38;;;4.46;47.64
34696;BME280;20918;51.138;17.370;2023-02-28T11:06:33;101659.41;;;4.45;48.00
34696;BME280;20918;51.138;17.370;2023-02-28T11:12:38;101652.82;;;5.08;48.96
34696;BME280;20918;51.138;17.370;2023-02-28T11:15:41;101650.39;;;5.53;49.14
34696;BME280;20918;51.138;17.370;2023-02-28T11:18:42;101650.68;;;5.87;49.11
34696;BME280;20918;51.138;17.370;2023-02-28T11:21:48;101645.16;;;6.21;49.15
34696;BME280;20918;51.138;17.370;2023-02-28T11:24:57;101643.88;;;6.59;49.23
34696;BME280;20918;51.138;17.370;2023-02-28T11:28:03;101641.95;;;6.74;48.71
34696;BME280;20918;51.138;17.370;2023-02-28T11:34:25;101645.64;;;6.40;47.26
34696;BME280;20918;51.138;17.370;2023-02-28T11:37:28;101645.98;;;5.92;48.19
34696;BME280;20918;51.138;17.370;2023-02-28T11:46:54;101647.16;;;5.23;48.79
34696;BME280;20918;51.138;17.370;2023-02-28T11:53:01;101637.50;;;4.86;49.33
34696;BME280;20918;51.138;17.370;2023-02-28T11:56:15;101637.52;;;4.89;49.73
34696;BME280;20918;51.138;17.370;2023-02-28T12:06:01;101624.50;;;5.12;50.20
34696;BME280;20918;51.138;17.370;2023-02-28T12:12:36;101617.77;;;5.19;49.32
34696;BME280;20918;51.138;17.370;2023-02-28T12:18:53;101611.87;;;4.81;50.13
34696;BME280;20918;51.138;17.370;2023-02-28T12:25:24;101610.83;;;4.43;50.45
34696;BME280;20918;51.138;17.370;2023-02-28T12:28:35;101608.30;;;4.41;50.59
34696;BME280;20918;51.138;17.370;2023-02-28T12:31:40;101604.47;;;4.61;50.96
34696;BME280;20918;51.138;17.370;2023-02-28T12:34:47;101602.80;;;4.45;50.04
34696;BME280;20918;51.138;17.370;2023-02-28T12:38:12;101598.12;;;4.38;49.86
34696;BME280;20918;51.138;17.370;2023-02-28T12:41:16;101596.77;;;4.41;50.30
34696;BME280;20918;51.138;17.370;2023-02-28T12:47:23;101585.05;;;4.25;50.46
34696;BME280;20918;51.138;17.370;2023-02-28T12:50:24;101583.79;;;4.26;50.51
34696;BME280;20918;51.138;17.370;2023-02-28T12:53:27;101587.77;;;4.12;50.24
34696;BME280;20918;51.138;17.370;2023-02-28T12:59:52;101583.50;;;3.83;50.00
34696;BME280;20918;51.138;17.370;2023-02-28T13:09:33;101583.14;;;3.65;50.84
34696;BME280;20918;51.138;17.370;2023-02-28T13:12:33;101579.17;;;3.60;50.57
34696;BME280;20918;51.138;17.370;2023-02-28T13:15:34;101579.33;;;3.57;50.68
34696;BME280;20918;51.138;17.370;2023-02-28T13:18:44;101579.55;;;3.69;50.91
34696;BME280;20918;51.138;17.370;2023-02-28T13:21:45;101580.43;;;3.78;50.78
34696;BME280;20918;51.138;17.370;2023-02-28T13:27:50;101580.84;;;3.83;50.32
34696;BME280;20918;51.138;17.370;2023-02-28T13:40:31;101572.27;;;4.10;50.74
34696;BME280;20918;51.138;17.370;2023-02-28T13:57:04;101557.46;;;4.59;51.30
34696;BME280;20918;51.138;17.370;2023-02-28T14:06:51;101553.86;;;4.43;50.67
34696;BME280;20918;51.138;17.370;2023-02-28T14:10:07;101546.91;;;4.30;50.59
34696;BME280;20918;51.138;17.370;2023-02-28T14:16:48;101541.60;;;3.96;50.54
34696;BME280;20918;51.138;17.370;2023-02-28T14:19:58;101540.52;;;3.75;51.06
34696;BME280;20918;51.138;17.370;2023-02-28T14:23:12;101537.05;;;3.68;51.07
34696;BME280;20918;51.138;17.370;2023-02-28T14:32:46;101537.51;;;3.54;51.29
34696;BME280;20918;51.138;17.370;2023-02-28T14:36:01;101530.55;;;3.44;51.56
34696;BME280;20918;51.138;17.370;2023-02-28T14:39:07;101527.52;;;3.51;51.83
34696;BME280;20918;51.138;17.370;2023-02-28T14:45:44;101524.48;;;3.46;51.67
34696;BME280;20918;51.138;17.370;2023-02-28T14:48:49;101525.02;;;3.43;51.62
34696;BME280;20918;51.138;17.370;2023-02-28T14:51:50;101521.46;;;3.44;51.84
34696;BME280;20918;51.138;17.370;2023-02-28T14:58:06;101527.88;;;3.35;52.00
34696;BME280;20918;51.138;17.370;2023-02-28T15:01:09;101530.48;;;3.27;51.92
34696;BME280;20918;51.138;17.370;2023-02-28T15:04:12;101534.40;;;3.19;51.93
34696;BME280;20918;51.138;17.370;2023-02-28T15:07:18;101531.90;;;3.07;51.87
34696;BME280;20918;51.138;17.370;2023-02-28T15:10:25;101530.05;;;2.96;52.14
34696;BME280;20918;51.138;17.370;2023-02-28T15:13:30;101533.64;;;2.95;52.19
34696;BME280;20918;51.138;17.370;2023-02-28T15:16:35;101528.63;;;3.00;52.75
34696;BME280;20918;51.138;17.370;2023-02-28T15:19:39;101529.50;;;3.06;52.47
34696;BME280;20918;51.138;17.370;2023-02-28T15:22:40;101528.59;;;3.07;52.53
34696;BME280;20918;51.138;17.370;2023-02-28T15:25:41;101527.33;;;3.07;52.64
34696;BME280;20918;51.138;17.370;2023-02-28T15:28:42;101521.66;;;3.08;52.79
34696;BME280;20918;51.138;17.370;2023-02-28T15:31:44;101523.35;;;3.00;52.59
34696;BME280;20918;51.138;17.370;2023-02-28T15:34:45;101516.75;;;2.87;52.68
34696;BME280;20918;51.138;17.370;2023-02-28T15:37:53;101520.59;;;2.80;52.88
34696;BME280;20918;51.138;17.370;2023-02-28T15:40:55;101522.82;;;2.71;53.04
34696;BME280;20918;51.138;17.370;2023-02-28T15:47:20;101523.05;;;2.51;53.51
34696;BME280;20918;51.138;17.370;2023-02-28T15:50:21;101523.88;;;2.45;53.70
34696;BME280;20918;51.138;17.370;2023-02-28T15:53:23;101520.23;;;2.41;53.84
34696;BME280;20918;51.138;17.370;2023-02-28T15:56:29;101524.84;;;2.33;54.49
34696;BME280;20918;51.138;17.370;2023-02-28T15:59:30;101526.05;;;2.12;54.17
34696;BME280;20918;51.138;17.370;2023-02-28T16:02:32;101524.13;;;1.95;54.35
34696;BME280;20918;51.138;17.370;2023-02-28T16:05:34;101528.54;;;1.77;54.61
34696;BME280;20918;51.138;17.370;2023-02-28T16:08:35;101528.58;;;1.58;55.03
34696;BME280;20918;51.138;17.370;2023-02-28T16:11:37;101526.08;;;1.45;55.29
34696;BME280;20918;51.138;17.370;2023-02-28T16:14:39;101527.73;;;1.44;55.47
34696;BME280;20918;51.138;17.370;2023-02-28T16:17:40;101528.50;;;1.42;55.98
34696;BME280;20918;51.138;17.370;2023-02-28T16:20:40;101529.38;;;1.38;56.28
34696;BME280;20918;51.138;17.370;2023-02-28T16:23:41;101532.91;;;1.33;56.34
34696;BME280;20918;51.138;17.370;2023-02-28T16:26:42;101532.89;;;1.26;56.45
34696;BME280;20918;51.138;17.370;2023-02-28T16:29:45;101538.75;;;1.20;56.65
34696;BME280;20918;51.138;17.370;2023-02-28T16:32:46;101539.13;;;1.12;56.90
34696;BME280;20918;51.138;17.370;2023-02-28T16:35:47;101539.88;;;1.04;56.96
34696;BME280;20918;51.138;17.370;2023-02-28T16:38:47;101539.40;;;0.95;57.21
34696;BME280;20918;51.138;17.370;2023-02-28T16:41:48;101540.78;;;0.88;57.34
34696;BME280;20918;51.138;17.370;2023-02-28T16:44:49;101537.69;;;0.83;57.39
34696;BME280;20918;51.138;17.370;2023-02-28T16:47:49;101543.48;;;0.78;57.48
34696;BME280;20918;51.138;17.370;2023-02-28T16:50:50;101547.69;;;0.73;57.67
34696;BME280;20918;51.138;17.370;2023-02-28T16:53:51;101548.21;;;0.70;57.95
34696;BME280;20918;51.138;17.370;2023-02-28T16:56:52;101549.25;;;0.66;58.02
34696;BME280;20918;51.138;17.370;2023-02-28T16:59:52;101552.73;;;0.62;58.22
34696;BME280;20918;51.138;17.370;2023-02-28T17:02:53;101553.53;;;0.55;58.32
34696;BME280;20918;51.138;17.370;2023-02-28T17:05:54;101558.87;;;0.45;58.30
34696;BME280;20918;51.138;17.370;2023-02-28T17:08:55;101565.00;;;0.32;58.54
34696;BME280;20918;51.138;17.370;2023-02-28T17:11:55;101563.83;;;0.23;58.67
34696;BME280;20918;51.138;17.370;2023-02-28T17:14:56;101565.88;;;0.16;58.84
34696;BME280;20918;51.138;17.370;2023-02-28T17:17:57;101567.17;;;0.13;59.09
34696;BME280;20918;51.138;17.370;2023-02-28T17:20:57;101568.33;;;0.11;59.13
34696;BME280;20918;51.138;17.370;2023-02-28T17:23:58;101567.49;;;0.06;59.51
34696;BME280;20918;51.138;17.370;2023-02-28T17:26:59;101565.02;;;-0.01;59.46
34696;BME280;20918;51.138;17.370;2023-02-28T17:30:02;101568.48;;;-0.05;59.72
34696;BME280;20918;51.138;17.370;2023-02-28T17:33:03;101564.15;;;-0.10;59.89
34696;BME280;20918;51.138;17.370;2023-02-28T17:36:03;101565.39;;;-0.15;60.29
34696;BME280;20918;51.138;17.370;2023-02-28T17:39:04;101566.17;;;-0.17;60.51
34696;BME280;20918;51.138;17.370;2023-02-28T17:42:09;101563.36;;;-0.20;60.56
34696;BME280;20918;51.138;17.370;2023-02-28T17:45:13;101569.27;;;-0.25;60.40
34696;BME280;20918;51.138;17.370;2023-02-28T17:48:13;101565.39;;;-0.32;60.71
34696;BME280;20918;51.138;17.370;2023-02-28T17:51:14;101567.02;;;-0.42;60.98
34696;BME280;20918;51.138;17.370;2023-02-28T17:54:15;101568.69;;;-0.54;61.41
34696;BME280;20918;51.138;17.370;2023-02-28T17:57:16;101571.61;;;-0.66;61.67
34696;BME280;20918;51.138;17.370;2023-02-28T18:00:16;101568.39;;;-0.78;61.61
34696;BME280;20918;51.138;17.370;2023-02-28T18:03:17;101571.83;;;-0.85;61.93
34696;BME280;20918;51.138;17.370;2023-02-28T18:06:23;101580.58;;;-0.93;61.97
34696;BME280;20918;51.138;17.370;2023-02-28T18:09:27;101580.24;;;-1.02;62.08
34696;BME280;20918;51.138;17.370;2023-02-28T18:12:28;101587.36;;;-1.15;62.72
34696;BME280;20918;51.138;17.370;2023-02-28T18:15:28;101584.60;;;-1.30;63.03
34696;BME280;20918;51.138;17.370;2023-02-28T18:18:29;101583.16;;;-1.44;63.06
34696;BME280;20918;51.138;17.370;2023-02-28T18:21:30;101581.57;;;-1.48;63.32
34696;BME280;20918;51.138;17.370;2023-02-28T18:24:35;101581.05;;;-1.53;63.75
34696;BME280;20918;51.138;17.370;2023-02-28T18:27:40;101582.79;;;-1.58;64.15